Time;durP1;ratioP1;P1;durP2;ratioP2;P2;SDS_P1;SDS_P2;PMS_P1;PMS_P2;Temp;Humidity;BMP_temperature;BMP_pressure;BME280_temperature;BME280_humidity;BME280_pressure;Samples;Min_cycle;Max_cycle;Signal;HPM_P1;HPM_P2
2021/11/21 00:01:30;;;;;;;;;;;;;;;2.40;73.69;97336.22;6185320;23;19926;-69
2021/11/21 00:03:56;;;;;;;;;;;;;;;2.53;73.06;97337.81;6185596;23;19998;-69
2021/11/21 00:06:22;;;;;;;;;;;;;;;2.48;72.84;97332.16;6184980;23;20351;-68
2021/11/21 00:08:47;;;;;;;;;;;;;;;2.45;72.88;97330.63;6183202;23;19999;-68
2021/11/21 00:11:13;;;;;;;;;;;;;;;2.38;72.95;97339.91;6185216;23;19935;-68
2021/11/21 00:13:39;;;;;;;;;;;;;;;2.39;72.86;97339.78;6185164;23;19924;-68
2021/11/21 00:16:06;;;;;;;;;;;;;;;2.45;72.72;97341.06;6183517;23;19920;-71
2021/11/21 00:18:32;;;;;;;;;;;;;;;2.41;72.50;97335.25;6184904;23;19924;-69
2021/11/21 00:21:00;;;;;;;;;;;;;;;2.41;72.55;97335.25;6185616;23;19955;-69
2021/11/21 00:23:26;;;;;;;;;;;;;;;2.46;72.62;97341.91;6184967;23;20005;-67
2021/11/21 00:25:51;;;;;;;;;;;;;;;2.53;72.52;97338.66;6184864;23;19924;-68
2021/11/21 00:28:17;;;;;;;;;;;;;;;2.50;72.35;97340.69;6208387;23;19920;-67
2021/11/21 00:30:43;;;;;;;;;;;;;;;2.51;72.53;97344.97;6183635;23;19924;-71
2021/11/21 00:33:09;;;;;;;;;;;;;;;2.42;72.44;97349.16;6184811;23;19920;-68
2021/11/21 00:35:34;;;;;;;;;;;;;;;2.36;72.58;97353.06;6184872;23;20251;-68
2021/11/21 00:38:00;;;;;;;;;;;;;;;2.29;72.70;97354.50;6182547;23;19974;-68
2021/11/21 00:40:26;;;;;;;;;;;;;;;2.34;72.87;97357.56;6185211;23;20346;-68
2021/11/21 00:42:53;;;;;;;;;;;;;;;2.46;72.86;97354.94;6184591;23;19959;-68
2021/11/21 00:45:19;;;;;;;;;;;;;;;2.54;73.19;97355.97;6184683;23;19924;-69
2021/11/21 00:47:45;;;;;;;;;;;;;;;2.56;72.50;97363.66;6183576;23;20354;-71
2021/11/21 00:50:13;;;;;;;;;;;;;;;2.55;72.96;97362.00;6184937;23;19920;-72
2021/11/21 00:52:38;;;;;;;;;;;;;;;2.55;72.68;97362.00;6184232;23;19942;-71
2021/11/21 00:55:10;;;;;;;;;;;;;;;2.58;72.67;97359.16;6184918;23;20398;-67
2021/11/21 00:57:39;;;;;;;;;;;;;;;2.57;73.18;97367.94;6185173;23;20267;-68
2021/11/21 01:00:07;;;;;;;;;;;;;;;2.55;72.68;97367.22;6184054;23;20011;-67
2021/11/21 01:02:33;;;;;;;;;;;;;;;2.51;73.04;97369.25;6183155;23;19924;-67
2021/11/21 01:04:59;;;;;;;;;;;;;;;2.41;73.65;97374.38;6182966;23;20351;-67
2021/11/21 01:07:25;;;;;;;;;;;;;;;2.36;73.73;97368.72;6184078;23;19939;-67
2021/11/21 01:09:50;;;;;;;;;;;;;;;2.43;73.72;97380.31;6184770;23;19924;-67
2021/11/21 01:12:16;;;;;;;;;;;;;;;2.52;73.90;97377.94;6184205;23;19995;-70
2021/11/21 01:14:42;;;;;;;;;;;;;;;2.58;73.69;97378.25;6184422;23;19925;-69
2021/11/21 01:17:08;;;;;;;;;;;;;;;2.59;73.88;97373.84;6182348;23;20224;-68
2021/11/21 01:19:33;;;;;;;;;;;;;;;2.63;73.34;97375.28;6182538;23;19920;-68
2021/11/21 01:21:59;;;;;;;;;;;;;;;2.54;73.58;97378.63;6184731;23;19920;-69
2021/11/21 01:24:25;;;;;;;;;;;;;;;2.50;73.34;97385.03;6184407;23;19926;-67
2021/11/21 01:26:51;;;;;;;;;;;;;;;2.51;73.98;97391.94;6184637;23;19927;-68
2021/11/21 01:29:17;;;;;;;;;;;;;;;2.53;73.90;97393.44;6185170;23;19924;-68
2021/11/21 01:31:47;;;;;;;;;;;;;;;2.55;73.25;97388.09;6185583;23;19920;-68
2021/11/21 01:34:13;;;;;;;;;;;;;;;2.53;73.83;97390.84;6182968;23;19940;-66
2021/11/21 01:36:38;;;;;;;;;;;;;;;2.63;73.81;97392.69;6185264;23;19924;-68
2021/11/21 01:39:04;;;;;;;;;;;;;;;2.52;73.08;97381.34;6184943;23;19920;-68
2021/11/21 01:41:30;;;;;;;;;;;;;;;2.59;73.15;97379.06;6182515;23;19920;-68
2021/11/21 01:43:55;;;;;;;;;;;;;;;2.57;72.83;97387.03;6184135;23;20043;-69
2021/11/21 01:46:30;;;;;;;;;;;;;;;2.62;72.75;97389.28;6184129;23;20086;-70
2021/11/21 01:48:56;;;;;;;;;;;;;;;2.66;72.49;97395.88;6184082;23;20252;-68
2021/11/21 01:51:23;;;;;;;;;;;;;;;2.63;72.75;97396.16;6184200;23;19931;-67
2021/11/21 01:53:48;;;;;;;;;;;;;;;2.66;72.78;97397.69;6184109;23;20337;-71
2021/11/21 01:56:14;;;;;;;;;;;;;;;2.66;72.47;97395.88;6183852;23;19920;-68
2021/11/21 01:58:40;;;;;;;;;;;;;;;2.75;72.42;97400.38;6184537;23;20011;-67
2021/11/21 02:01:06;;;;;;;;;;;;;;;2.78;72.50;97411.50;6183135;23;20251;-69
2021/11/21 02:03:33;;;;;;;;;;;;;;;2.82;72.21;97410.31;6183648;23;19924;-69
2021/11/21 02:06:00;;;;;;;;;;;;;;;2.79;72.04;97410.53;6182895;23;20409;-66
2021/11/21 02:08:26;;;;;;;;;;;;;;;2.80;72.11;97414.81;6183083;23;19920;-67
2021/11/21 02:10:57;;;;;;;;;;;;;;;2.81;72.47;97419.09;6183413;23;19930;-66
2021/11/21 02:13:26;;;;;;;;;;;;;;;2.66;72.81;97416.75;6183632;23;20354;-69
2021/11/21 02:15:51;;;;;;;;;;;;;;;2.47;73.55;97417.44;6184697;23;19924;-70
2021/11/21 02:18:18;;;;;;;;;;;;;;;2.50;74.55;97418.97;6182638;23;20346;-68
2021/11/21 02:20:48;;;;;;;;;;;;;;;2.48;74.40;97419.09;6182946;23;20319;-68
2021/11/21 02:23:14;;;;;;;;;;;;;;;2.48;74.63;97426.91;6182178;23;19947;-68
2021/11/21 02:25:40;;;;;;;;;;;;;;;2.40;74.88;97424.91;6184099;23;19920;-69
2021/11/21 02:28:06;;;;;;;;;;;;;;;2.40;75.05;97427.50;6182297;23;19920;-68
2021/11/21 02:30:32;;;;;;;;;;;;;;;2.43;74.81;97422.06;6184120;23;20002;-68
2021/11/21 02:33:00;;;;;;;;;;;;;;;2.43;74.78;97424.66;6183956;23;20334;-70
2021/11/21 02:35:26;;;;;;;;;;;;;;;2.36;74.65;97431.31;6184029;23;20405;-67
2021/11/21 02:37:52;;;;;;;;;;;;;;;2.40;75.02;97419.69;6184033;23;19966;-66
2021/11/21 02:40:17;;;;;;;;;;;;;;;2.54;75.23;97430.78;6184565;23;19924;-69
2021/11/21 02:42:43;;;;;;;;;;;;;;;2.59;75.00;97431.25;6183821;23;19920;-71
2021/11/21 02:45:11;;;;;;;;;;;;;;;2.53;75.14;97435.19;6184335;23;19924;-69
2021/11/21 02:47:37;;;;;;;;;;;;;;;2.53;75.27;97426.53;6184020;23;19920;-67
2021/11/21 02:50:04;;;;;;;;;;;;;;;2.48;74.93;97434.75;6183439;23;19975;-67
2021/11/21 02:52:30;;;;;;;;;;;;;;;2.33;74.98;97426.38;6183647;23;19971;-68
2021/11/21 02:54:58;;;;;;;;;;;;;;;2.27;75.75;97432.06;6184008;23;19920;-68
2021/11/21 02:57:24;;;;;;;;;;;;;;;2.09;75.80;97435.19;6181989;23;19920;-68
2021/11/21 02:59:50;;;;;;;;;;;;;;;2.23;75.48;97433.25;6183763;23;19962;-66
2021/11/21 03:02:18;;;;;;;;;;;;;;;2.32;75.03;97437.75;6184228;23;19947;-68
2021/11/21 03:04:45;;;;;;;;;;;;;;;2.36;74.68;97443.56;6182313;23;19920;-69
2021/11/21 03:07:10;;;;;;;;;;;;;;;2.39;75.05;97431.09;6183680;23;19920;-69
2021/11/21 03:09:36;;;;;;;;;;;;;;;2.43;74.85;97432.50;6183927;23;20252;-69
2021/11/21 03:12:02;;;;;;;;;;;;;;;2.33;75.44;97431.59;6182064;23;19991;-68
2021/11/21 03:14:30;;;;;;;;;;;;;;;2.12;75.61;97428.06;6181952;23;20351;-69
2021/11/21 03:16:57;;;;;;;;;;;;;;;2.16;76.59;97430.31;6183810;23;20324;-71
2021/11/21 03:19:22;;;;;;;;;;;;;;;2.17;76.83;97436.34;6185620;23;20306;-71
2021/11/21 03:21:48;;;;;;;;;;;;;;;2.26;76.51;97435.63;6184417;23;19927;-67
2021/11/21 03:24:14;;;;;;;;;;;;;;;2.30;76.35;97437.03;6185078;23;19990;-72
2021/11/21 03:26:40;;;;;;;;;;;;;;;2.37;76.00;97438.19;6185883;23;20239;-68
2021/11/21 03:29:05;;;;;;;;;;;;;;;2.34;75.67;97448.06;6186850;23;19920;-68
2021/11/21 03:31:33;;;;;;;;;;;;;;;2.32;75.70;97442.97;6185465;23;19927;-69
2021/11/21 03:34:00;;;;;;;;;;;;;;;2.31;75.50;97443.91;6185659;23;19920;-72
2021/11/21 03:36:26;;;;;;;;;;;;;;;2.31;75.63;97443.91;6185215;23;19943;-68
2021/11/21 03:38:52;;;;;;;;;;;;;;;2.30;75.54;97450.06;6185470;23;19928;-68
2021/11/21 03:41:18;;;;;;;;;;;;;;;2.35;75.83;97447.91;6185279;23;19927;-71
2021/11/21 03:43:43;;;;;;;;;;;;;;;2.28;76.23;97449.38;6185299;23;19927;-70
2021/11/21 03:46:09;;;;;;;;;;;;;;;2.31;76.08;97451.72;6185686;23;19999;-68
2021/11/21 03:48:35;;;;;;;;;;;;;;;2.35;76.49;97457.53;6185437;23;20421;-70
2021/11/21 03:51:00;;;;;;;;;;;;;;;2.23;76.03;97443.69;6185281;23;20414;-70
2021/11/21 03:53:26;;;;;;;;;;;;;;;2.26;76.81;97451.28;6183549;23;19924;-69
2021/11/21 03:55:52;;;;;;;;;;;;;;;2.22;76.13;97448.06;6158608;23;19931;-71
2021/11/21 03:58:17;;;;;;;;;;;;;;;2.22;76.51;97457.69;6185142;23;19964;-67
2021/11/21 04:00:46;;;;;;;;;;;;;;;2.22;77.12;97448.06;6185211;23;20007;-68
2021/11/21 04:03:12;;;;;;;;;;;;;;;2.07;76.46;97451.91;6184821;23;20338;-67
2021/11/21 04:05:40;;;;;;;;;;;;;;;2.00;76.98;97459.34;6183398;23;20046;-67
2021/11/21 04:08:06;;;;;;;;;;;;;;;1.95;76.98;97456.28;6185291;23;19985;-68
2021/11/21 04:10:33;;;;;;;;;;;;;;;1.94;77.16;97458.06;6185379;23;20074;-68
2021/11/21 04:13:00;;;;;;;;;;;;;;;1.97;76.93;97464.81;6183390;23;19927;-67
2021/11/21 04:15:25;;;;;;;;;;;;;;;2.03;76.59;97463.50;6184878;23;19956;-68
2021/11/21 04:17:51;;;;;;;;;;;;;;;2.00;76.65;97461.16;6184952;23;20225;-67
2021/11/21 04:20:17;;;;;;;;;;;;;;;2.01;76.29;97462.81;6184878;23;20054;-72
2021/11/21 04:22:42;;;;;;;;;;;;;;;2.03;76.52;97460.88;6185488;23;19998;-70
2021/11/21 04:25:09;;;;;;;;;;;;;;;2.06;76.55;97466.69;6185329;23;19919;-69
2021/11/21 04:27:35;;;;;;;;;;;;;;;2.02;76.14;97465.28;6184681;23;20343;-68
2021/11/21 04:30:01;;;;;;;;;;;;;;;2.02;76.61;97465.28;6184777;23;20366;-68
2021/11/21 04:32:31;;;;;;;;;;;;;;;2.10;75.99;97467.28;6182912;23;19920;-67
2021/11/21 04:34:57;;;;;;;;;;;;;;;2.16;75.70;97464.19;6183363;23;19920;-69
2021/11/21 04:37:24;;;;;;;;;;;;;;;1.98;75.88;97463.88;6184685;23;20006;-66
2021/11/21 04:39:50;;;;;;;;;;;;;;;1.93;76.81;97474.66;6185058;23;19921;-67
2021/11/21 04:42:16;;;;;;;;;;;;;;;2.04;76.90;97471.19;6183005;23;19920;-68
2021/11/21 04:44:43;;;;;;;;;;;;;;;2.10;75.93;97472.50;6184556;23;19924;-70
2021/11/21 04:47:11;;;;;;;;;;;;;;;2.03;75.65;97473.94;6184867;23;20224;-68
2021/11/21 04:49:37;;;;;;;;;;;;;;;2.01;75.79;97479.25;6182772;23;19924;-67
2021/11/21 04:52:06;;;;;;;;;;;;;;;2.08;75.06;97479.59;6182989;23;19967;-64
2021/11/21 04:54:32;;;;;;;;;;;;;;;2.17;75.41;97473.69;6184670;23;19920;-68
2021/11/21 04:57:00;;;;;;;;;;;;;;;2.21;74.69;97475.09;6183230;23;19928;-69
2021/11/21 04:59:26;;;;;;;;;;;;;;;2.13;75.00;97481.88;6133998;23;19924;-66
2021/11/21 05:01:51;;;;;;;;;;;;;;;2.12;75.17;97482.81;6184885;23;20255;-66
2021/11/21 05:04:17;;;;;;;;;;;;;;;2.09;74.11;97489.94;6184765;23;19920;-68
2021/11/21 05:06:43;;;;;;;;;;;;;;;2.12;74.39;97493.22;6184836;23;19920;-69
2021/11/21 05:09:08;;;;;;;;;;;;;;;2.17;74.08;97488.47;6184996;23;19948;-71
2021/11/21 05:11:35;;;;;;;;;;;;;;;2.25;74.29;97491.34;6184647;23;20011;-69
2021/11/21 05:14:01;;;;;;;;;;;;;;;2.22;73.67;97488.97;6184649;23;19920;-70
2021/11/21 05:16:26;;;;;;;;;;;;;;;2.17;73.63;97493.69;6184379;23;19973;-68
2021/11/21 05:18:52;;;;;;;;;;;;;;;2.21;73.68;97495.97;6185036;23;19932;-67
2021/11/21 05:21:18;;;;;;;;;;;;;;;2.24;73.00;97495.72;6183150;23;20003;-68
2021/11/21 05:23:44;;;;;;;;;;;;;;;2.23;73.07;97504.50;6186910;23;19920;-67
2021/11/21 05:26:10;;;;;;;;;;;;;;;2.29;72.58;97499.75;6184079;23;19924;-71
2021/11/21 05:28:36;;;;;;;;;;;;;;;2.28;72.71;97503.31;6182733;23;19921;-70
2021/11/21 05:31:02;;;;;;;;;;;;;;;2.25;72.72;97496.56;6184128;23;20360;-68
2021/11/21 05:33:30;;;;;;;;;;;;;;;2.27;73.12;97497.28;6183979;23;19955;-71
2021/11/21 05:35:56;;;;;;;;;;;;;;;2.42;72.68;97509.09;6182928;23;20398;-70
2021/11/21 05:38:22;;;;;;;;;;;;;;;2.46;72.19;97504.47;6183467;23;19924;-67
2021/11/21 05:40:49;;;;;;;;;;;;;;;2.48;72.71;97506.94;6184215;23;19920;-69
2021/11/21 05:43:15;;;;;;;;;;;;;;;2.45;72.85;97508.03;6182523;23;19920;-67
2021/11/21 05:45:40;;;;;;;;;;;;;;;2.50;72.26;97510.28;6183937;23;19939;-68
2021/11/21 05:48:06;;;;;;;;;;;;;;;2.42;72.00;97509.09;6184241;23;20019;-70
2021/11/21 05:50:32;;;;;;;;;;;;;;;2.53;72.06;97512.63;6182812;23;19924;-70
2021/11/21 05:52:59;;;;;;;;;;;;;;;2.53;71.78;97515.22;6182757;23;20015;-71
2021/11/21 05:55:24;;;;;;;;;;;;;;;2.49;72.09;97513.81;6184148;23;20020;-68
2021/11/21 05:57:50;;;;;;;;;;;;;;;2.52;71.89;97503.16;6184554;23;19920;-71
2021/11/21 06:00:18;;;;;;;;;;;;;;;2.57;71.29;97511.44;6184136;23;19920;-68
2021/11/21 06:02:43;;;;;;;;;;;;;;;2.54;71.07;97501.25;6182378;23;19926;-68
2021/11/21 06:05:09;;;;;;;;;;;;;;;2.54;70.84;97504.69;6184109;23;19952;-68
2021/11/21 06:07:35;;;;;;;;;;;;;;;2.56;70.36;97502.78;6182100;23;19920;-71
2021/11/21 06:10:02;;;;;;;;;;;;;;;2.61;70.45;97512.84;6184401;23;19920;-70
2021/11/21 06:12:29;;;;;;;;;;;;;;;2.68;70.47;97506.22;6183267;23;19920;-70
2021/11/21 06:14:54;;;;;;;;;;;;;;;2.62;70.57;97509.31;6184504;23;19920;-69
2021/11/21 06:17:20;;;;;;;;;;;;;;;2.69;70.15;97514.84;6184536;23;19958;-70
2021/11/21 06:19:46;;;;;;;;;;;;;;;2.72;69.91;97509.41;6183925;23;19999;-72
2021/11/21 06:22:12;;;;;;;;;;;;;;;2.73;69.72;97511.88;6185109;23;19966;-72
2021/11/21 06:24:41;;;;;;;;;;;;;;;2.98;69.33;97516.91;6185154;23;20007;-73
2021/11/21 06:27:06;;;;;;;;;;;;;;;3.13;69.22;97512.22;6182543;23;19958;-71
2021/11/21 06:29:32;;;;;;;;;;;;;;;3.09;68.98;97522.09;6184129;23;19924;-70
2021/11/21 06:31:58;;;;;;;;;;;;;;;3.03;69.36;97528.63;6184331;23;19920;-70
2021/11/21 06:34:23;;;;;;;;;;;;;;;3.01;69.06;97530.53;6184143;23;19920;-70
2021/11/21 06:36:49;;;;;;;;;;;;;;;3.05;69.22;97531.97;6184004;23;19920;-70
2021/11/21 06:39:15;;;;;;;;;;;;;;;3.12;68.90;97531.47;6184313;23;19920;-69
2021/11/21 06:41:43;;;;;;;;;;;;;;;3.10;69.24;97539.41;6157829;23;19924;-68
2021/11/21 06:44:27;;;;;;;;;;;;;;;3.10;68.92;97539.41;6183167;23;19920;-71
2021/11/21 06:46:58;;;;;;;;;;;;;;;3.06;68.79;97538.81;6184101;23;19931;-69
2021/11/21 06:49:24;;;;;;;;;;;;;;;3.19;68.80;97533.47;6159249;23;19920;-70
2021/11/21 06:51:50;;;;;;;;;;;;;;;3.26;68.93;97533.78;6184536;23;19981;-70
2021/11/21 06:54:16;;;;;;;;;;;;;;;3.44;68.74;97543.66;6184571;23;19955;-68
2021/11/21 06:56:42;;;;;;;;;;;;;;;3.51;68.01;97539.59;6186191;23;19935;-68
2021/11/21 06:59:08;;;;;;;;;;;;;;;3.62;67.53;97542.16;6183650;23;19966;-70
2021/11/21 07:01:34;;;;;;;;;;;;;;;3.40;67.98;97538.69;6184720;23;19928;-66
2021/11/21 07:03:59;;;;;;;;;;;;;;;3.24;68.23;97546.16;6185474;23;19943;-70
2021/11/21 07:06:29;;;;;;;;;;;;;;;3.30;68.40;97556.09;6184969;23;19943;-68
2021/11/21 07:08:54;;;;;;;;;;;;;;;3.22;68.02;97556.69;6185464;23;20271;-69
2021/11/21 07:11:21;;;;;;;;;;;;;;;3.15;68.65;97549.50;6185245;23;19927;-70
2021/11/21 07:13:47;;;;;;;;;;;;;;;3.30;68.46;97555.25;6182722;23;20417;-68
2021/11/21 07:16:12;;;;;;;;;;;;;;;3.39;68.85;97547.50;6185601;23;19931;-71
2021/11/21 07:18:38;;;;;;;;;;;;;;;3.40;67.97;97550.91;6184368;23;19927;-71
2021/11/21 07:21:17;;;;;;;;;;;;;;;3.43;67.90;97565.50;6138549;23;19928;-69
2021/11/21 07:23:54;;;;;;;;;;;;;;;3.47;67.92;97556.50;6161184;23;19920;-69
2021/11/21 07:26:59;;;;;;;;;;;;;;;;;;;;;
2021/11/21 07:29:37;;;;;;;;;;;;;;;3.52;67.04;97559.56;6122972;23;20020;-68
2021/11/21 07:32:32;;;;;;;;;;;;;;;3.51;66.96;97556.09;6099778;23;19913;-73
2021/11/21 07:34:58;;;;;;;;;;;;;;;3.58;66.71;97564.28;6118413;23;20017;-68
2021/11/21 07:41:23;;;;;;;;;;;;;;;;;;;;;
2021/11/21 07:44:17;;;;;;;;;;;;;;;3.92;64.55;97553.59;6102434;23;20032;-70
2021/11/21 07:47:17;;;;;;;;;;;;;;;4.07;64.11;97561.13;6098442;23;19917;-73
2021/11/21 07:49:43;;;;;;;;;;;;;;;4.24;63.46;97565.75;6097827;23;19955;-69
2021/11/21 07:52:08;;;;;;;;;;;;;;;4.37;62.96;97569.00;6098243;23;19927;-72
2021/11/21 07:54:40;;;;;;;;;;;;;;;4.75;62.40;97563.16;6098601;23;19921;-67
2021/11/21 07:58:09;;;;;;;;;;;;;;;5.37;60.03;97566.44;6066430;23;19979;-68
2021/11/21 08:01:05;;;;;;;;;;;;;;;5.05;60.61;97570.13;6045988;23;19953;-72
2021/11/21 08:03:36;;;;;;;;;;;;;;;5.04;60.76;97576.31;6064607;23;19966;-69
2021/11/21 08:06:18;;;;;;;;;;;;;;;5.33;59.89;97565.88;6078835;23;19924;-71
2021/11/21 08:09:00;;;;;;;;;;;;;;;5.44;58.33;97570.16;6093181;23;19921;-69
2021/11/21 08:11:44;;;;;;;;;;;;;;;7.01;57.18;97566.25;6049973;23;19933;-72
2021/11/21 08:17:43;;;;;;;;;;;;;;;8.01;51.98;97569.56;6095676;23;20040;-72
2021/11/21 08:20:46;;;;;;;;;;;;;;;7.42;51.75;97561.38;6094265;23;20272;-71
2021/11/21 08:23:26;;;;;;;;;;;;;;;6.78;53.65;97574.53;6049829;23;20344;-71
2021/11/21 08:26:10;;;;;;;;;;;;;;;6.08;54.74;97578.41;6065654;23;19937;-69
2021/11/21 08:29:17;;;;;;;;;;;;;;;;;;;;;
2021/11/21 08:32:08;;;;;;;;;;;;;;;5.84;55.63;97581.44;6184073;23;20006;-73
2021/11/21 08:34:51;;;;;;;;;;;;;;;5.76;55.48;97579.50;6184523;23;19920;-72
2021/11/21 08:37:29;;;;;;;;;;;;;;;5.57;55.60;97582.16;6183668;23;19920;-70
2021/11/21 08:40:03;;;;;;;;;;;;;;;5.61;54.69;97581.75;6159097;23;19928;-72
2021/11/21 08:42:40;;;;;;;;;;;;;;;;;;;;;
2021/11/21 08:45:27;;;;;;;;;;;;;;;5.53;55.26;97572.91;6183443;23;20039;-72
2021/11/21 08:48:31;;;;;;;;;;;;;;;5.41;55.00;97580.06;6165147;23;19939;-69
2021/11/21 08:51:10;;;;;;;;;;;;;;;5.38;54.14;97575.94;6164301;23;20015;-72
2021/11/21 08:53:46;;;;;;;;;;;;;;;5.32;54.17;97586.97;6160069;23;19967;-69
2021/11/21 08:56:16;;;;;;;;;;;;;;;5.26;54.78;97579.66;6159762;23;19920;-73
2021/11/21 08:59:04;;;;;;;;;;;;;;;5.26;54.83;97588.34;6138597;23;19920;-71
2021/11/21 09:01:48;;;;;;;;;;;;;;;5.13;54.53;97585.16;6159373;23;19940;-73
2021/11/21 09:04:14;;;;;;;;;;;;;;;5.03;54.22;97593.00;6183202;23;19916;-73
2021/11/21 09:07:03;;;;;;;;;;;;;;;4.87;55.15;97598.75;6152960;23;19930;-70
2021/11/21 09:09:51;;;;;;;;;;;;;;;4.74;54.08;97603.44;6136883;23;19920;-71
2021/11/21 09:12:33;;;;;;;;;;;;;;;4.66;54.45;97597.06;6161559;23;19922;-69
2021/11/21 09:15:06;;;;;;;;;;;;;;;4.55;54.68;97599.78;6160001;23;19920;-74
2021/11/21 09:17:32;;;;;;;;;;;;;;;4.64;54.09;97601.59;6134806;23;19918;-72
2021/11/21 09:20:03;;;;;;;;;;;;;;;4.55;53.31;97594.53;6112289;23;19970;-71
2021/11/21 09:22:29;;;;;;;;;;;;;;;4.48;53.94;97599.44;6158311;23;19916;-72
2021/11/21 09:25:03;;;;;;;;;;;;;;;4.55;53.19;97597.16;6137428;23;19920;-72
2021/11/21 09:27:29;;;;;;;;;;;;;;;4.46;52.79;97596.16;6158361;23;20011;-73
2021/11/21 09:29:59;;;;;;;;;;;;;;;4.62;53.21;97602.69;6234209;23;20537;-72
2021/11/21 09:32:28;;;;;;;;;;;;;;;4.64;52.26;97609.44;6160490;23;19920;-70
2021/11/21 09:34:53;;;;;;;;;;;;;;;4.69;52.02;97596.78;6159758;23;20382;-71
2021/11/21 09:37:19;;;;;;;;;;;;;;;4.79;52.70;97603.84;6185113;23;19942;-69
2021/11/21 09:39:47;;;;;;;;;;;;;;;4.86;53.26;97607.59;6159057;23;19975;-70
2021/11/21 09:42:17;;;;;;;;;;;;;;;4.85;53.44;97603.31;6183094;23;19951;-75
2021/11/21 09:44:43;;;;;;;;;;;;;;;4.88;53.04;97605.66;6184246;23;19931;-71
2021/11/21 09:47:08;;;;;;;;;;;;;;;4.85;53.44;97603.31;6182866;23;20267;-72
2021/11/21 09:49:34;;;;;;;;;;;;;;;4.88;53.39;97597.78;6158403;23;19920;-70
2021/11/21 09:52:09;;;;;;;;;;;;;;;4.79;53.54;97601.22;6184715;23;19920;-71
2021/11/21 09:54:43;;;;;;;;;;;;;;;4.72;53.38;97610.56;6136373;23;19920;-71
2021/11/21 09:57:32;;;;;;;;;;;;;;;4.63;53.62;97610.41;6213970;23;19920;-73
2021/11/21 10:00:16;;;;;;;;;;;;;;;4.53;53.97;97607.75;6161707;23;20264;-70
2021/11/21 10:03:03;;;;;;;;;;;;;;;4.61;53.75;97603.63;6160533;23;20358;-72
2021/11/21 10:05:35;;;;;;;;;;;;;;;4.55;53.80;97618.09;6182655;23;19952;-72
2021/11/21 10:08:06;;;;;;;;;;;;;;;4.37;53.38;97621.31;6157889;23;20335;-71
2021/11/21 10:10:52;;;;;;;;;;;;;;;4.45;53.84;97625.06;6182573;23;19963;-70
2021/11/21 10:13:55;;;;;;;;;;;;;;;4.43;54.41;97619.97;6209303;23;19920;-72
2021/11/21 10:20:19;;;;;;;;;;;;;;;4.35;54.69;97628.47;6167278;23;19975;-72
2021/11/21 10:22:50;;;;;;;;;;;;;;;4.49;54.52;97637.75;6158762;23;20344;-72
2021/11/21 10:25:42;;;;;;;;;;;;;;;4.39;54.13;97631.66;6182289;23;19995;-72
2021/11/21 10:28:18;;;;;;;;;;;;;;;4.30;54.93;97633.28;6157947;23;20007;-70
2021/11/21 10:30:59;;;;;;;;;;;;;;;4.25;54.40;97624.97;6182823;23;19920;-70
2021/11/21 10:33:29;;;;;;;;;;;;;;;4.14;54.43;97632.91;6182185;23;19939;-71
2021/11/21 10:35:55;;;;;;;;;;;;;;;4.23;55.15;97634.75;6157600;23;20370;-71
2021/11/21 10:38:20;;;;;;;;;;;;;;;4.30;54.17;97632.41;6184695;23;20007;-71
2021/11/21 10:40:46;;;;;;;;;;;;;;;4.11;53.90;97641.00;6183051;23;19920;-74
2021/11/21 10:43:16;;;;;;;;;;;;;;;4.11;54.46;97635.75;6182880;23;20006;-72
2021/11/21 10:45:42;;;;;;;;;;;;;;;4.19;53.99;97633.34;6182823;23;19928;-73
2021/11/21 10:48:08;;;;;;;;;;;;;;;4.26;53.88;97642.34;6184494;23;19920;-74
2021/11/21 10:50:38;;;;;;;;;;;;;;;4.29;53.47;97636.03;6184038;23;19923;-72
2021/11/21 10:53:07;;;;;;;;;;;;;;;4.18;53.09;97639.53;6184545;23;19928;-71
2021/11/21 10:55:33;;;;;;;;;;;;;;;4.14;53.27;97643.38;6182321;23;19924;-73
2021/11/21 10:58:21;;;;;;;;;;;;;;;4.08;53.05;97636.03;6157108;23;19920;-73
2021/11/21 11:01:06;;;;;;;;;;;;;;;3.99;53.51;97641.06;6182698;23;19920;-69
2021/11/21 11:03:33;;;;;;;;;;;;;;;3.99;52.94;97641.06;6135659;23;20398;-70
2021/11/21 11:06:21;;;;;;;;;;;;;;;4.14;53.56;97638.94;6158438;23;19924;-72
2021/11/21 11:09:14;;;;;;;;;;;;;;;4.15;52.92;97629.31;6132856;23;19920;-72
2021/11/21 11:11:47;;;;;;;;;;;;;;;4.33;53.08;97640.03;6182859;23;20240;-70
2021/11/21 11:14:22;;;;;;;;;;;;;;;4.35;53.07;97640.75;6158511;23;19924;-69
2021/11/21 11:17:08;;;;;;;;;;;;;;;4.26;53.43;97637.13;6162227;23;19920;-70
2021/11/21 11:19:35;;;;;;;;;;;;;;;4.25;53.11;97634.59;6182218;23;20306;-72
2021/11/21 11:22:09;;;;;;;;;;;;;;;4.24;53.85;97623.31;6158125;23;19998;-70
2021/11/21 11:24:43;;;;;;;;;;;;;;;4.25;54.49;97624.97;6160045;23;19924;-70
2021/11/21 11:27:48;;;;;;;;;;;;;;;4.44;54.03;97626.03;6158319;23;19916;-71
2021/11/21 11:30:18;;;;;;;;;;;;;;;4.36;54.59;97618.81;6183103;23;19916;-70
2021/11/21 11:32:48;;;;;;;;;;;;;;;4.28;53.51;97619.47;6108422;23;19995;-70
2021/11/21 11:35:41;;;;;;;;;;;;;;;4.24;53.32;97620.69;6182723;23;19920;-72
2021/11/21 11:38:42;;;;;;;;;;;;;;;4.25;52.87;97614.50;6164064;23;20332;-71
2021/11/21 11:41:23;;;;;;;;;;;;;;;4.31;52.65;97616.63;6115093;23;20263;-71
2021/11/21 11:44:07;;;;;;;;;;;;;;;4.47;52.65;97617.91;6165298;23;20324;-71
2021/11/21 11:46:34;;;;;;;;;;;;;;;4.47;53.46;97616.13;6184944;23;19931;-71
2021/11/21 11:49:09;;;;;;;;;;;;;;;4.38;52.98;97617.72;6185751;23;19920;-72
2021/11/21 11:51:38;;;;;;;;;;;;;;;4.34;54.11;97616.34;6186487;23;19927;-71
2021/11/21 11:54:15;;;;;;;;;;;;;;;4.31;54.55;97613.16;6185704;23;19920;-71
2021/11/21 11:56:46;;;;;;;;;;;;;;;4.48;54.57;97612.53;6185879;23;20016;-74
2021/11/21 11:59:29;;;;;;;;;;;;;;;4.53;54.32;97617.38;6183887;23;19920;-73
2021/11/21 12:01:58;;;;;;;;;;;;;;;4.30;54.48;97625.41;6184992;23;19924;-73
2021/11/21 12:04:25;;;;;;;;;;;;;;;4.12;55.18;97629.59;6159491;23;20020;-69
2021/11/21 12:06:58;;;;;;;;;;;;;;;4.01;55.62;97625.22;6184105;23;19927;-73
2021/11/21 12:09:29;;;;;;;;;;;;;;;4.08;55.41;97628.19;6185661;23;19999;-71
2021/11/21 12:11:57;;;;;;;;;;;;;;;4.21;55.20;97623.56;6184776;23;19920;-71
2021/11/21 12:14:43;;;;;;;;;;;;;;;4.23;55.64;97631.31;6185813;23;19952;-70
2021/11/21 12:17:16;;;;;;;;;;;;;;;4.25;55.10;97630.22;6184722;23;20247;-71
2021/11/21 12:19:42;;;;;;;;;;;;;;;4.14;55.93;97623.25;6159373;23;19920;-72
2021/11/21 12:22:23;;;;;;;;;;;;;;;4.07;55.77;97632.56;6185223;23;19924;-73
2021/11/21 12:24:50;;;;;;;;;;;;;;;3.97;56.16;97632.50;6183273;23;19920;-74
2021/11/21 12:27:18;;;;;;;;;;;;;;;4.00;56.63;97629.66;6185936;23;20100;-72
2021/11/21 12:29:44;;;;;;;;;;;;;;;4.08;56.58;97639.47;6181546;23;19920;-71
2021/11/21 12:35:48;;;;;;;;;;;;;;;4.06;57.50;97638.75;6154962;23;19925;-70
2021/11/21 12:38:20;;;;;;;;;;;;;;;4.00;57.55;97644.50;6155571;23;20643;-72
2021/11/21 12:41:00;;;;;;;;;;;;;;;3.89;58.23;97643.59;6179706;23;19916;-71
2021/11/21 12:43:34;;;;;;;;;;;;;;;3.81;58.26;97642.56;6179467;23;19921;-71
2021/11/21 12:46:00;;;;;;;;;;;;;;;3.87;58.60;97652.53;6105546;23;19974;-70
2021/11/21 12:48:35;;;;;;;;;;;;;;;3.91;59.10;97653.94;6130805;23;19995;-73
2021/11/21 12:51:06;;;;;;;;;;;;;;;3.81;58.94;97647.81;6181208;23;19991;-70
2021/11/21 12:53:37;;;;;;;;;;;;;;;3.71;59.57;97648.56;6156900;23;19991;-71
2021/11/21 12:56:12;;;;;;;;;;;;;;;3.72;59.67;97644.97;6204264;23;20252;-69
2021/11/21 12:58:47;;;;;;;;;;;;;;;3.73;60.27;97646.66;6133992;23;19924;-75
2021/11/21 13:01:20;;;;;;;;;;;;;;;3.76;59.83;97647.34;6132235;23;19925;-71
2021/11/21 13:04:14;;;;;;;;;;;;;;;3.73;59.91;97641.41;6135745;23;19928;-70
2021/11/21 13:07:03;;;;;;;;;;;;;;;3.82;60.06;97633.78;6179017;23;19928;-73
2021/11/21 13:09:40;;;;;;;;;;;;;;;3.82;60.03;97633.78;6155866;23;19920;-72
2021/11/21 13:12:37;;;;;;;;;;;;;;;;;;;;;
2021/11/21 13:15:05;;;;;;;;;;;;;;;3.78;60.41;97633.22;6184476;23;19932;-70
2021/11/21 13:17:33;;;;;;;;;;;;;;;3.72;60.63;97637.13;6233080;23;19974;-72
2021/11/21 13:20:08;;;;;;;;;;;;;;;3.63;60.35;97639.69;6184619;23;19944;-69
2021/11/21 13:22:52;;;;;;;;;;;;;;;3.56;60.77;97639.34;6183004;23;19983;-71
2021/11/21 13:25:39;;;;;;;;;;;;;;;3.54;60.82;97641.28;6159210;23;20318;-72
2021/11/21 13:28:29;;;;;;;;;;;;;;;3.59;61.18;97641.72;6183356;23;20370;-71
2021/11/21 13:31:02;;;;;;;;;;;;;;;3.61;61.10;97642.41;6182552;23;19920;-72
2021/11/21 13:33:39;;;;;;;;;;;;;;;3.54;61.02;97646.50;6184814;23;19920;-69
2021/11/21 13:36:10;;;;;;;;;;;;;;;3.47;61.14;97645.34;6159908;23;20006;-68
2021/11/21 13:38:36;;;;;;;;;;;;;;;3.55;61.64;97645.53;6158659;23;19927;-70